Terminal Aerodrome Forecast
Issued by NWS Twin Cities, MN

Home | Current Version | Previous Version | Graphics & Text | Print | Product List | Glossary On
Versions: 1 2 3 4 5 6 7 8 9 10 11 12 13 14 15
003
FTUS43 KMPX 251720
TAFSTC
TAF
KSTC 251720Z 2518/2618 28013G20KT P6SM BKN025 BKN040
     FM251900 29015G22KT P6SM SCT025 BKN040
     FM260200 30004KT P6SM FEW040
     FM261100 VRB02KT 2SM BR SKC
     FM261300 20004KT P6SM SCT250=

USA.gov is the U.S. government's official web portal to all federal, state and local government web resources and services.